createdAt,value
2022-10-11T00:00:18.401Z,8.90
2022-10-11T00:01:18.437Z,8.50
2022-10-11T00:02:18.373Z,8.50
2022-10-11T00:03:18.362Z,9.10
2022-10-11T00:04:18.339Z,9.00
2022-10-11T00:05:18.347Z,8.80
2022-10-11T00:06:18.309Z,8.40
2022-10-11T00:07:18.301Z,9.40
2022-10-11T00:08:18.291Z,8.60
2022-10-11T00:09:18.278Z,9.00
2022-10-11T00:10:18.291Z,8.50
2022-10-11T00:11:18.251Z,8.50
2022-10-11T00:12:18.239Z,9.00
2022-10-11T00:13:18.224Z,9.50
2022-10-11T00:14:18.200Z,9.20
2022-10-11T00:15:18.218Z,8.70
2022-10-11T00:16:18.182Z,9.10
2022-10-11T00:17:18.171Z,9.00
2022-10-11T00:18:18.152Z,8.70
2022-10-11T00:19:18.140Z,9.20
2022-10-11T00:20:18.140Z,9.20
2022-10-11T00:21:18.120Z,10.90
2022-10-11T00:22:18.101Z,10.00
2022-10-11T00:23:18.091Z,11.00
2022-10-11T00:24:18.074Z,10.00
2022-10-11T00:25:18.082Z,10.40
2022-10-11T00:26:18.051Z,10.60
2022-10-11T00:27:18.040Z,9.90
2022-10-11T00:28:18.044Z,10.30
2022-10-11T00:29:18.011Z,9.40
2022-10-11T00:30:18.039Z,9.80
2022-10-11T00:31:17.982Z,9.70
2022-10-11T00:32:17.969Z,9.20
2022-10-11T00:33:17.951Z,9.10
2022-10-11T00:34:17.943Z,9.30
2022-10-11T00:35:17.952Z,9.50
2022-10-11T00:36:17.913Z,9.90
2022-10-11T00:37:17.903Z,9.00
2022-10-11T00:38:17.883Z,10.70
2022-10-11T00:39:17.888Z,10.50
2022-10-11T00:40:17.883Z,9.70
2022-10-11T00:41:17.852Z,9.40
2022-10-11T00:42:17.832Z,10.00
2022-10-11T00:43:17.824Z,9.40
2022-10-11T00:44:17.803Z,10.80
2022-10-11T00:45:17.813Z,10.70
2022-10-11T00:46:17.784Z,10.20
2022-10-11T00:47:17.772Z,10.30
2022-10-11T00:48:17.753Z,10.10
2022-10-11T00:49:17.743Z,10.30
2022-10-11T00:50:17.743Z,10.20
2022-10-11T00:51:17.722Z,10.00
2022-10-11T00:52:17.703Z,10.90
2022-10-11T00:53:17.693Z,9.90
2022-10-11T00:54:17.673Z,10.30
2022-10-11T00:55:17.684Z,11.10
2022-10-11T00:56:17.644Z,10.70
2022-10-11T00:57:17.642Z,11.10
2022-10-11T00:58:17.626Z,10.50
2022-10-11T00:59:17.615Z,10.30
2022-10-11T01:00:17.614Z,10.70
2022-10-11T01:01:17.620Z,10.50
2022-10-11T01:02:17.564Z,11.40
2022-10-11T01:03:17.562Z,12.30
2022-10-11T01:04:17.544Z,11.70
2022-10-11T01:05:29.242Z,10.90
2022-10-11T01:06:18.521Z,10.60
2022-10-11T01:07:17.506Z,11.30
2022-10-11T01:08:17.485Z,11.10
2022-10-11T01:09:17.483Z,11.10
2022-10-11T01:10:17.483Z,10.90
2022-10-11T01:11:17.455Z,10.80
2022-10-11T01:12:17.436Z,10.50
2022-10-11T01:13:17.425Z,11.10
2022-10-11T01:14:17.405Z,11.70
2022-10-11T01:15:17.485Z,11.40
2022-10-11T01:16:17.392Z,12.50
2022-10-11T01:17:17.375Z,12.40
2022-10-11T01:18:17.356Z,11.90
2022-10-11T01:19:17.358Z,11.40
2022-10-11T01:20:17.347Z,11.70
2022-10-11T01:21:17.327Z,12.50
2022-10-11T01:22:17.306Z,12.30
2022-10-11T01:23:17.326Z,12.10
2022-10-11T01:24:17.285Z,12.90
2022-10-11T01:25:17.276Z,13.10
2022-10-11T01:26:17.247Z,13.60
2022-10-11T01:27:17.245Z,13.10
2022-10-11T01:28:17.243Z,11.80
2022-10-11T01:29:17.217Z,12.30
2022-10-11T01:30:17.221Z,11.80
2022-10-11T01:31:17.187Z,11.70
2022-10-11T01:32:17.166Z,12.60
2022-10-11T01:33:17.159Z,12.80
2022-10-11T01:34:17.144Z,13.00
2022-10-11T01:35:17.188Z,11.90
2022-10-11T01:36:17.117Z,13.90
2022-10-11T01:37:17.110Z,13.10
2022-10-11T01:38:17.089Z,13.20
2022-10-11T01:39:17.078Z,13.80
2022-10-11T01:40:17.085Z,12.70
2022-10-11T01:41:17.058Z,13.40
2022-10-11T01:42:17.037Z,12.90
2022-10-11T01:43:17.030Z,13.80
2022-10-11T01:44:17.008Z,13.30
2022-10-11T01:45:17.019Z,12.70
2022-10-11T01:46:16.988Z,13.30
2022-10-11T01:47:16.978Z,12.50
2022-10-11T01:48:16.958Z,12.10
2022-10-11T01:49:16.949Z,12.90
2022-10-11T01:50:16.951Z,12.70
2022-10-11T01:51:16.927Z,13.20
2022-10-11T01:52:16.908Z,13.70
2022-10-11T01:53:16.897Z,13.20
2022-10-11T01:54:16.881Z,13.40
2022-10-11T01:55:16.879Z,13.50
2022-10-11T01:56:16.849Z,13.40
2022-10-11T01:57:16.840Z,13.20
2022-10-11T01:58:16.828Z,13.20
2022-10-11T01:59:16.831Z,13.90
2022-10-11T02:00:16.820Z,13.80
2022-10-11T02:01:16.848Z,13.40
2022-10-11T02:02:16.769Z,13.10
2022-10-11T02:03:16.769Z,13.30
2022-10-11T02:04:16.748Z,12.90
2022-10-11T02:05:16.775Z,12.70
2022-10-11T02:06:16.720Z,13.60
2022-10-11T02:07:16.709Z,14.10
2022-10-11T02:08:16.690Z,15.10
2022-10-11T02:09:16.680Z,14.90
2022-10-11T02:10:16.680Z,15.10
2022-10-11T02:11:16.654Z,14.30
2022-10-11T02:12:16.640Z,14.30
2022-10-11T02:13:16.630Z,13.90
2022-10-11T02:14:16.613Z,14.30
2022-10-11T02:15:16.631Z,14.10
2022-10-11T02:16:16.592Z,13.10
2022-10-11T02:17:16.570Z,14.00
2022-10-11T02:18:16.563Z,13.50
2022-10-11T02:19:16.551Z,12.80
2022-10-11T02:20:16.552Z,13.20
2022-10-11T02:21:16.525Z,13.10
2022-10-11T02:22:16.519Z,13.10
2022-10-11T02:23:16.506Z,13.90
2022-10-11T02:24:16.481Z,13.20
2022-10-11T02:25:16.518Z,13.30
2022-10-11T02:26:16.452Z,13.30
2022-10-11T02:27:16.450Z,13.70
2022-10-11T02:28:16.490Z,14.00
2022-10-11T02:29:16.421Z,13.90
2022-10-11T02:30:16.419Z,13.50
2022-10-11T02:31:16.402Z,14.30
2022-10-11T02:32:16.371Z,13.80
2022-10-11T02:33:16.364Z,15.10
2022-10-11T02:34:16.352Z,15.30
2022-10-11T02:35:16.352Z,14.30
2022-10-11T02:36:16.323Z,14.60
2022-10-11T02:37:16.330Z,13.80
2022-10-11T02:38:16.294Z,12.90
2022-10-11T02:39:16.283Z,13.60
2022-10-11T02:40:16.300Z,13.70
2022-10-11T02:41:16.261Z,12.70
2022-10-11T02:42:16.251Z,12.60
2022-10-11T02:43:16.236Z,13.90
2022-10-11T02:44:16.229Z,13.90
2022-10-11T02:45:16.223Z,13.10
2022-10-11T02:46:17.750Z,14.00
2022-10-11T02:47:16.184Z,13.10
2022-10-11T02:48:16.163Z,14.50
2022-10-11T02:49:16.147Z,13.40
2022-10-11T02:50:16.153Z,14.50
2022-10-11T02:51:16.125Z,13.80
2022-10-11T02:52:16.114Z,13.70
2022-10-11T02:53:16.094Z,13.20
2022-10-11T02:54:16.084Z,13.20
2022-10-11T02:55:16.084Z,13.10
2022-10-11T02:56:16.066Z,13.90
2022-10-11T02:57:16.044Z,13.70
2022-10-11T02:58:16.034Z,13.10
2022-10-11T02:59:16.022Z,13.80
2022-10-11T03:00:16.023Z,13.10
2022-10-11T03:01:16.046Z,12.90
2022-10-11T03:02:15.984Z,13.40
2022-10-11T03:03:15.966Z,12.90
2022-10-11T03:04:15.965Z,13.30
2022-10-11T03:05:15.954Z,13.20
2022-10-11T03:06:15.933Z,13.70
2022-10-11T03:07:15.918Z,13.90
2022-10-11T03:08:15.905Z,13.80
2022-10-11T03:09:15.885Z,14.10
2022-10-11T03:10:15.894Z,13.70
2022-10-11T03:11:15.863Z,12.80
2022-10-11T03:12:15.845Z,12.20
2022-10-11T03:13:18.401Z,13.10
2022-10-11T03:14:15.837Z,12.80
2022-10-11T03:15:15.826Z,13.00
2022-10-11T03:16:15.803Z,12.70
2022-10-11T03:17:34.973Z,12.60
2022-10-11T03:18:16.766Z,13.00
2022-10-11T03:19:19.131Z,13.20
2022-10-11T03:20:15.766Z,12.60
2022-10-11T03:21:15.747Z,14.20
2022-10-11T03:22:15.717Z,14.30
2022-10-11T03:23:15.697Z,15.80
2022-10-11T03:24:15.704Z,17.10
2022-10-11T03:25:15.688Z,15.30
2022-10-11T03:26:15.675Z,14.70
2022-10-11T03:27:15.648Z,14.40
2022-10-11T03:28:15.688Z,15.00
2022-10-11T03:29:15.629Z,14.40
2022-10-11T03:30:18.149Z,14.90
2022-10-11T03:31:15.612Z,14.70
2022-10-11T03:32:15.586Z,13.90
2022-10-11T03:33:15.568Z,14.90
2022-10-11T03:34:15.557Z,14.20
2022-10-11T03:35:15.590Z,14.20
2022-10-11T03:36:15.537Z,14.50
2022-10-11T03:37:15.518Z,14.20
2022-10-11T03:38:15.509Z,14.00
2022-10-11T03:39:15.489Z,14.80
2022-10-11T03:40:15.498Z,14.00
2022-10-11T03:41:15.469Z,13.90
2022-10-11T03:42:15.458Z,13.90
2022-10-11T03:43:15.438Z,13.60
2022-10-11T03:44:15.429Z,13.20
2022-10-11T03:45:15.428Z,12.90
2022-10-11T03:46:15.417Z,13.70
2022-10-11T03:47:15.387Z,13.10
2022-10-11T03:48:15.379Z,12.70
2022-10-11T03:49:15.359Z,12.50
2022-10-11T03:50:15.368Z,13.10
2022-10-11T03:51:15.328Z,13.20
2022-10-11T03:52:15.327Z,13.40
2022-10-11T03:53:15.303Z,12.50
2022-10-11T03:54:15.297Z,12.90
2022-10-11T03:55:15.298Z,12.40
2022-10-11T03:56:16.103Z,12.80
2022-10-11T03:57:15.252Z,12.70
2022-10-11T03:58:15.239Z,13.00
2022-10-11T03:59:15.229Z,13.20
2022-10-11T04:00:15.228Z,12.80
2022-10-11T04:01:15.215Z,12.70
2022-10-11T04:02:15.189Z,13.30
2022-10-11T04:03:15.177Z,13.40
2022-10-11T04:04:15.168Z,13.90
2022-10-11T04:05:15.160Z,15.10
2022-10-11T04:06:15.150Z,15.70
2022-10-11T04:07:15.119Z,16.40
2022-10-11T04:08:15.111Z,16.10
2022-10-11T04:09:15.090Z,15.40
2022-10-11T04:10:15.100Z,15.30
2022-10-11T04:11:15.071Z,17.80
2022-10-11T04:12:15.058Z,18.10
2022-10-11T04:13:15.040Z,16.90
2022-10-11T04:14:15.030Z,16.00
2022-10-11T04:15:22.288Z,16.60
2022-10-11T04:16:15.007Z,17.30
2022-10-11T04:17:15.736Z,15.80
2022-10-11T04:18:14.978Z,15.50
2022-10-11T04:19:14.975Z,15.30
2022-10-11T04:20:14.979Z,16.60
2022-10-11T04:21:14.943Z,15.00
2022-10-11T04:22:14.928Z,15.00
2022-10-11T04:23:14.921Z,14.50
2022-10-11T04:24:14.911Z,14.60
2022-10-11T04:25:14.898Z,15.10
2022-10-11T04:26:14.879Z,16.00
2022-10-11T04:27:14.869Z,15.90
2022-10-11T04:28:14.881Z,15.00
2022-10-11T04:29:14.850Z,15.00
2022-10-11T04:30:14.850Z,14.70
2022-10-11T04:31:14.809Z,14.60
2022-10-11T04:32:14.798Z,14.10
2022-10-11T04:33:14.790Z,14.70
2022-10-11T04:34:14.770Z,14.90
2022-10-11T04:35:14.781Z,14.00
2022-10-11T04:36:14.750Z,13.70
2022-10-11T04:37:14.729Z,13.00
2022-10-11T04:38:14.749Z,14.30
2022-10-11T04:39:14.715Z,13.70
2022-10-11T04:40:14.717Z,14.10
2022-10-11T04:41:14.692Z,13.80
2022-10-11T04:42:14.681Z,15.30
2022-10-11T04:43:14.640Z,15.40
2022-10-11T04:44:14.641Z,14.20
2022-10-11T04:45:14.654Z,14.50
2022-10-11T04:46:14.622Z,13.60
2022-10-11T04:47:14.593Z,13.90
2022-10-11T04:48:14.605Z,15.50
2022-10-11T04:49:14.570Z,14.70
2022-10-11T04:50:14.580Z,14.60
2022-10-11T04:51:14.552Z,14.90
2022-10-11T04:52:14.560Z,14.80
2022-10-11T04:53:14.538Z,14.50
2022-10-11T04:54:14.511Z,13.90
2022-10-11T04:55:14.513Z,14.00
2022-10-11T04:56:14.505Z,14.50
2022-10-11T04:57:14.481Z,16.40
2022-10-11T04:58:14.457Z,15.30
2022-10-11T04:59:14.473Z,15.60
2022-10-11T05:00:14.450Z,15.50
2022-10-11T05:01:14.420Z,14.90
2022-10-11T05:02:14.494Z,14.60
2022-10-11T05:03:14.396Z,14.00
2022-10-11T05:04:14.390Z,14.40
2022-10-11T05:05:14.395Z,14.50
2022-10-11T05:06:14.576Z,13.90
2022-10-11T05:07:14.344Z,13.40
2022-10-11T05:08:14.335Z,13.40
2022-10-11T05:09:14.302Z,14.40
2022-10-11T05:10:14.309Z,14.40
2022-10-11T05:11:16.016Z,14.40
2022-10-11T05:12:14.293Z,14.40
2022-10-11T05:13:14.253Z,14.20
2022-10-11T05:14:14.253Z,14.00
2022-10-11T05:15:14.273Z,14.30
2022-10-11T05:16:14.492Z,14.60
2022-10-11T05:17:14.217Z,15.10
2022-10-11T05:18:14.203Z,14.80
2022-10-11T05:19:14.193Z,13.60
2022-10-11T05:20:14.192Z,13.80
2022-10-11T05:21:14.158Z,13.80
2022-10-11T05:22:14.147Z,13.80
2022-10-11T05:23:14.124Z,13.30
2022-10-11T05:24:14.113Z,13.40
2022-10-11T05:25:14.120Z,14.10
2022-10-11T05:26:14.167Z,15.00
2022-10-11T05:27:14.065Z,14.70
2022-10-11T05:28:14.117Z,14.20
2022-10-11T05:29:14.063Z,14.30
2022-10-11T05:30:14.056Z,13.40
2022-10-11T05:31:14.042Z,14.20
2022-10-11T05:32:14.017Z,14.00
2022-10-11T05:33:14.003Z,14.40
2022-10-11T05:34:13.978Z,13.80
2022-10-11T05:35:13.994Z,14.60
2022-10-11T05:36:13.966Z,14.10
2022-10-11T05:37:13.933Z,14.20
2022-10-11T05:38:13.944Z,14.50
2022-10-11T05:39:13.921Z,13.90
2022-10-11T05:40:13.924Z,14.60
2022-10-11T05:41:13.906Z,14.20
2022-10-11T05:42:13.898Z,14.00
2022-10-11T05:43:13.864Z,14.10
2022-10-11T05:44:13.864Z,13.60
2022-10-11T05:45:13.854Z,13.10
2022-10-11T05:46:13.834Z,13.90
2022-10-11T05:47:13.804Z,13.00
2022-10-11T05:48:13.815Z,15.60
2022-10-11T05:49:13.783Z,14.50
2022-10-11T05:50:13.785Z,14.00
2022-10-11T05:51:13.757Z,14.20
2022-10-11T05:52:13.756Z,14.30
2022-10-11T05:53:13.744Z,13.30
2022-10-11T05:54:13.723Z,14.00
2022-10-11T05:55:13.721Z,13.50
2022-10-11T05:56:13.696Z,15.70
2022-10-11T05:57:13.676Z,14.70
2022-10-11T05:58:13.677Z,14.40
2022-10-11T05:59:13.648Z,14.00
2022-10-11T06:00:13.654Z,14.20
2022-10-11T06:01:13.694Z,14.80
2022-10-11T06:02:13.616Z,15.10
2022-10-11T06:03:13.595Z,14.50
2022-10-11T06:04:13.587Z,15.50
2022-10-11T06:05:13.586Z,15.30
2022-10-11T06:06:13.565Z,15.00
2022-10-11T06:07:13.547Z,15.90
2022-10-11T06:08:13.536Z,16.00
2022-10-11T06:09:13.525Z,16.40
2022-10-11T06:10:13.571Z,15.90
2022-10-11T06:11:13.511Z,15.10
2022-10-11T06:12:13.486Z,16.60
2022-10-11T06:13:13.498Z,16.90
2022-10-11T06:14:13.466Z,20.50
2022-10-11T06:15:13.447Z,18.70
2022-10-11T06:16:13.437Z,22.50
2022-10-11T06:17:13.427Z,22.50
2022-10-11T06:18:13.414Z,24.80
2022-10-11T06:19:13.384Z,22.50
2022-10-11T06:20:13.397Z,23.30
2022-10-11T06:21:13.399Z,21.30
2022-10-11T06:22:13.350Z,20.90
2022-10-11T06:23:13.330Z,22.10
2022-10-11T06:24:13.317Z,21.30
2022-10-11T06:25:13.330Z,23.40
2022-10-11T06:26:13.326Z,23.90
2022-10-11T06:27:13.279Z,24.00
2022-10-11T06:28:13.302Z,24.10
2022-10-11T06:29:13.268Z,29.80
2022-10-11T06:30:13.258Z,29.50
2022-10-11T06:31:13.228Z,29.40
2022-10-11T06:32:13.278Z,32.00
2022-10-11T06:33:13.208Z,35.10
2022-10-11T06:34:13.191Z,37.10
2022-10-11T06:35:13.191Z,38.70
2022-10-11T06:36:13.168Z,41.00
2022-10-11T06:37:13.147Z,41.40
2022-10-11T06:38:13.157Z,42.00
2022-10-11T06:39:13.149Z,39.80
2022-10-11T06:40:13.131Z,41.30
2022-10-11T06:41:13.097Z,46.50
2022-10-11T06:42:13.098Z,48.10
2022-10-11T06:43:13.067Z,45.80
2022-10-11T06:44:14.358Z,39.40
2022-10-11T06:45:13.039Z,39.80
2022-10-11T06:46:13.097Z,40.40
2022-10-11T06:47:13.017Z,42.40
2022-10-11T06:48:13.020Z,47.00
2022-10-11T06:49:13.000Z,43.10
2022-10-11T06:50:12.991Z,41.60
2022-10-11T06:51:12.983Z,42.00
2022-10-11T06:52:12.961Z,40.00
2022-10-11T06:53:12.939Z,37.10
2022-10-11T06:54:12.952Z,34.60
2022-10-11T06:55:12.915Z,35.70
2022-10-11T06:56:12.912Z,34.90
2022-10-11T06:57:12.905Z,34.10
2022-10-11T06:58:12.860Z,36.10
2022-10-11T06:59:12.878Z,36.00
2022-10-11T07:00:13.008Z,34.70
2022-10-11T07:01:12.922Z,35.30
2022-10-11T07:02:12.820Z,32.80
2022-10-11T07:03:12.812Z,34.60
2022-10-11T07:04:12.793Z,33.20
2022-10-11T07:05:12.782Z,35.70
2022-10-11T07:06:12.792Z,41.20
2022-10-11T07:07:12.776Z,36.00
2022-10-11T07:08:12.732Z,35.20
2022-10-11T07:09:12.727Z,35.30
2022-10-11T07:10:12.711Z,38.50
2022-10-11T07:11:12.741Z,37.00
2022-10-11T07:12:12.678Z,33.30
2022-10-11T07:13:17.129Z,32.50
2022-10-11T07:14:12.670Z,32.30
2022-10-11T07:15:12.661Z,31.50
2022-10-11T07:16:12.656Z,31.50
2022-10-11T07:17:12.636Z,30.70
2022-10-11T07:18:12.606Z,30.50
2022-10-11T07:19:12.592Z,34.00
2022-10-11T07:20:12.604Z,31.70
2022-10-11T07:21:12.563Z,30.50
2022-10-11T07:22:12.565Z,31.50
2022-10-11T07:23:12.543Z,30.60
2022-10-11T07:24:12.523Z,29.90
2022-10-11T07:25:12.543Z,31.90
2022-10-11T07:26:12.496Z,29.70
2022-10-11T07:27:12.507Z,28.30
2022-10-11T07:28:12.532Z,27.20
2022-10-11T07:29:12.462Z,24.80
2022-10-11T07:30:12.455Z,25.20
2022-10-11T07:31:12.442Z,30.70
2022-10-11T07:32:12.416Z,26.90
2022-10-11T07:33:12.414Z,27.40
2022-10-11T07:34:12.390Z,27.50
2022-10-11T07:35:12.421Z,26.40
2022-10-11T07:36:12.365Z,24.60
2022-10-11T07:37:12.364Z,25.50
2022-10-11T07:38:12.335Z,24.60
2022-10-11T07:39:12.344Z,27.70
2022-10-11T07:40:12.327Z,26.50
2022-10-11T07:41:12.297Z,26.10
2022-10-11T07:42:12.308Z,27.80
2022-10-11T07:43:12.316Z,28.50
2022-10-11T07:44:12.261Z,25.40
2022-10-11T07:45:12.284Z,25.30
2022-10-11T07:46:12.229Z,24.70
2022-10-11T07:47:12.248Z,25.20
2022-10-11T07:48:12.235Z,25.90
2022-10-11T07:49:12.197Z,25.30
2022-10-11T07:50:12.217Z,23.10
2022-10-11T07:51:12.168Z,23.50
2022-10-11T07:52:12.167Z,21.80
2022-10-11T07:53:12.139Z,20.30
2022-10-11T07:54:12.260Z,19.80
2022-10-11T07:55:12.107Z,19.20
2022-10-11T07:56:12.110Z,18.80
2022-10-11T07:57:12.088Z,18.40
2022-10-11T07:58:12.067Z,18.00
2022-10-11T07:59:12.068Z,19.10
2022-10-11T08:00:12.050Z,18.00
2022-10-11T08:01:12.158Z,19.00
2022-10-11T08:02:12.019Z,18.50
2022-10-11T08:03:12.006Z,17.40
2022-10-11T08:04:11.990Z,19.50
2022-10-11T08:05:11.988Z,16.80
2022-10-11T08:06:11.979Z,17.10
2022-10-11T08:07:11.961Z,18.80
2022-10-11T08:08:11.929Z,18.50
2022-10-11T08:09:11.931Z,19.00
2022-10-11T08:10:11.915Z,18.30
2022-10-11T08:11:11.919Z,18.10
2022-10-11T08:12:11.880Z,18.30
2022-10-11T08:13:11.883Z,18.80
2022-10-11T08:14:11.859Z,17.50
2022-10-11T08:15:11.865Z,18.30
2022-10-11T08:16:11.850Z,18.70
2022-10-11T08:17:11.828Z,18.30
2022-10-11T08:18:11.800Z,19.30
2022-10-11T08:19:11.800Z,19.70
2022-10-11T08:20:11.780Z,19.20
2022-10-11T08:21:11.790Z,19.80
2022-10-11T08:22:11.751Z,19.10
2022-10-11T08:23:11.743Z,19.60
2022-10-11T08:24:11.731Z,20.30
2022-10-11T08:25:11.744Z,20.20
2022-10-11T08:26:11.718Z,19.90
2022-10-11T08:27:11.689Z,21.10
2022-10-11T08:28:11.701Z,21.30
2022-10-11T08:29:11.661Z,22.60
2022-10-11T08:30:11.673Z,22.20
2022-10-11T08:31:11.642Z,20.90
2022-10-11T08:32:11.634Z,21.70
2022-10-11T08:33:11.604Z,21.50
2022-10-11T08:34:11.595Z,22.40
2022-10-11T08:35:11.604Z,22.80
2022-10-11T08:36:11.729Z,23.50
2022-10-11T08:37:11.574Z,22.30
2022-10-11T08:38:11.541Z,22.70
2022-10-11T08:39:11.551Z,21.50
2022-10-11T08:40:11.533Z,21.70
2022-10-11T08:41:11.524Z,23.20
2022-10-11T08:42:11.493Z,24.00
2022-10-11T08:43:11.472Z,24.30
2022-10-11T08:44:11.470Z,26.90
2022-10-11T08:45:12.331Z,25.80
2022-10-11T08:46:11.434Z,26.10
2022-10-11T08:47:11.425Z,26.60
2022-10-11T08:48:11.457Z,27.40
2022-10-11T08:49:11.403Z,26.30
2022-10-11T08:50:11.420Z,28.30
2022-10-11T08:51:11.735Z,29.80
2022-10-11T08:52:11.384Z,30.50
2022-10-11T08:53:11.364Z,30.30
2022-10-11T08:54:11.346Z,29.80
2022-10-11T08:55:11.394Z,30.60
2022-10-11T08:56:11.343Z,30.50
2022-10-11T08:57:11.295Z,30.40
2022-10-11T08:58:11.285Z,31.20
2022-10-11T08:59:11.276Z,31.50
2022-10-11T09:00:11.265Z,29.90
2022-10-11T09:01:11.296Z,29.00
2022-10-11T09:02:11.237Z,29.70
2022-10-11T09:03:11.234Z,30.40
2022-10-11T09:04:11.206Z,30.30
2022-10-11T09:05:11.237Z,29.60
2022-10-11T09:06:11.188Z,29.80
2022-10-11T09:07:11.177Z,30.80
2022-10-11T09:08:11.147Z,31.30
2022-10-11T09:09:11.158Z,30.20
2022-10-11T09:10:11.217Z,29.50
2022-10-11T09:11:11.118Z,29.50
2022-10-11T09:12:11.093Z,30.10
2022-10-11T09:13:11.086Z,30.10
2022-10-11T09:14:11.075Z,29.10
2022-10-11T09:15:11.091Z,30.40
2022-10-11T09:16:11.046Z,29.50
2022-10-11T09:17:11.047Z,30.00
2022-10-11T09:18:11.011Z,31.20
2022-10-11T09:19:11.010Z,30.90
2022-10-11T09:20:11.006Z,31.60
2022-10-11T09:21:10.986Z,31.30
2022-10-11T09:22:10.962Z,31.80
2022-10-11T09:23:10.960Z,33.40
2022-10-11T09:24:10.929Z,32.00
2022-10-11T09:25:10.967Z,33.00
2022-10-11T09:26:10.925Z,32.80
2022-10-11T09:27:10.890Z,34.40
2022-10-11T09:28:10.948Z,34.20
2022-10-11T09:29:10.935Z,35.40
2022-10-11T09:30:10.861Z,35.50
2022-10-11T09:31:10.855Z,36.30
2022-10-11T09:32:10.830Z,36.50
2022-10-11T09:33:10.819Z,35.10
2022-10-11T09:34:10.790Z,36.10
2022-10-11T09:35:10.822Z,36.00
2022-10-11T09:36:10.771Z,36.60
2022-10-11T09:37:10.795Z,36.40
2022-10-11T09:38:10.769Z,35.20
2022-10-11T09:39:10.741Z,36.60
2022-10-11T09:40:10.753Z,36.30
2022-10-11T09:41:10.710Z,35.60
2022-10-11T09:42:10.711Z,34.70
2022-10-11T09:43:10.694Z,36.50
2022-10-11T09:44:10.670Z,32.80
2022-10-11T09:45:10.695Z,35.20
2022-10-11T09:46:10.635Z,35.20
2022-10-11T09:47:10.646Z,35.90
2022-10-11T09:48:10.637Z,35.40
2022-10-11T09:49:10.606Z,36.90
2022-10-11T09:50:10.584Z,35.50
2022-10-11T09:51:10.606Z,36.70
2022-10-11T09:52:10.583Z,35.70
2022-10-11T09:53:10.556Z,35.50
2022-10-11T09:54:10.537Z,35.20
2022-10-11T09:55:10.529Z,35.70
2022-10-11T09:56:10.537Z,35.70
2022-10-11T09:57:10.487Z,35.70
2022-10-11T09:58:10.471Z,34.50
2022-10-11T09:59:10.465Z,34.80
2022-10-11T10:00:10.476Z,34.20
2022-10-11T10:01:10.448Z,35.10
2022-10-11T10:02:10.436Z,34.50
2022-10-11T10:03:10.409Z,36.10
2022-10-11T10:04:10.388Z,36.20
2022-10-11T10:05:10.427Z,35.30
2022-10-11T10:06:10.393Z,35.30
2022-10-11T10:07:10.367Z,35.10
2022-10-11T10:08:10.357Z,36.00
2022-10-11T10:09:10.355Z,36.10
2022-10-11T10:10:10.329Z,37.60
2022-10-11T10:11:10.386Z,40.10
2022-10-11T10:12:10.290Z,39.70
2022-10-11T10:13:10.286Z,39.20
2022-10-11T10:14:10.259Z,37.90
2022-10-11T10:15:10.289Z,39.60
2022-10-11T10:17:20.049Z,39.60
2022-10-11T10:18:20.022Z,40.50
2022-10-11T10:19:20.026Z,39.40
2022-10-11T10:20:20.001Z,38.50
2022-10-11T10:21:19.983Z,39.00
2022-10-11T10:22:19.960Z,37.50
2022-10-11T10:23:19.958Z,36.90
2022-10-11T10:24:19.941Z,37.20
2022-10-11T10:25:19.945Z,38.40
2022-10-11T10:26:19.911Z,39.90
2022-10-11T10:27:19.921Z,39.30
2022-10-11T10:28:19.949Z,38.30
2022-10-11T10:29:19.882Z,37.30
2022-10-11T10:30:19.870Z,38.40
2022-10-11T10:31:19.842Z,37.30
2022-10-11T10:32:19.821Z,37.60
2022-10-11T10:33:19.821Z,37.40
2022-10-11T10:34:19.812Z,37.00
2022-10-11T10:35:19.800Z,37.80
2022-10-11T10:36:19.792Z,39.00
2022-10-11T10:37:19.771Z,36.90
2022-10-11T10:38:24.134Z,37.60
2022-10-11T10:39:20.743Z,36.90
2022-10-11T10:40:19.763Z,37.20
2022-10-11T10:41:19.732Z,38.70
2022-10-11T10:42:19.692Z,39.00
2022-10-11T10:43:19.713Z,37.70
2022-10-11T10:44:19.678Z,39.20
2022-10-11T10:45:21.808Z,38.90
2022-10-11T10:46:19.664Z,39.40
2022-10-11T10:47:19.633Z,37.20
2022-10-11T10:48:19.614Z,38.80
2022-10-11T10:49:48.352Z,40.10
2022-10-11T10:50:20.595Z,40.00
2022-10-11T10:51:19.596Z,40.20
2022-10-11T10:52:19.573Z,40.80
2022-10-11T10:53:19.562Z,40.30
2022-10-11T10:54:19.534Z,40.40
2022-10-11T10:55:19.525Z,39.80
2022-10-11T10:56:19.529Z,39.00
2022-10-11T10:57:19.505Z,38.30
2022-10-11T10:58:19.493Z,40.20
2022-10-11T10:59:19.477Z,40.50
2022-10-11T11:00:19.457Z,40.50
2022-10-11T11:01:19.510Z,40.30
2022-10-11T11:02:39.683Z,40.80
2022-10-11T11:03:20.416Z,40.20
2022-10-11T11:04:19.406Z,41.30
2022-10-11T11:05:19.389Z,39.90
2022-10-11T11:06:19.395Z,40.90
2022-10-11T11:07:19.367Z,40.00
2022-10-11T11:08:19.359Z,39.60
2022-10-11T11:09:19.337Z,39.10
2022-10-11T11:10:19.329Z,39.60
2022-10-11T11:11:19.318Z,40.60
2022-10-11T11:12:19.298Z,39.10
2022-10-11T11:13:19.278Z,39.80
2022-10-11T11:14:19.278Z,38.40
2022-10-11T11:15:20.092Z,38.40
2022-10-11T11:16:19.249Z,38.60
2022-10-11T11:17:19.237Z,39.60
2022-10-11T11:18:19.220Z,41.60
2022-10-11T11:19:19.229Z,42.80
2022-10-11T11:20:19.212Z,44.10
2022-10-11T11:21:19.182Z,42.80
2022-10-11T11:22:19.205Z,43.00
2022-10-11T11:23:19.151Z,44.20
2022-10-11T11:24:19.141Z,42.00
2022-10-11T11:25:19.140Z,42.40
2022-10-11T11:26:19.112Z,41.00
2022-10-11T11:27:19.094Z,40.60
2022-10-11T11:28:19.165Z,41.20
2022-10-11T11:29:19.083Z,39.60
2022-10-11T11:30:19.063Z,38.80
2022-10-11T11:31:19.062Z,37.90
2022-10-11T11:32:19.034Z,36.20
2022-10-11T11:33:19.014Z,37.60
2022-10-11T11:34:19.013Z,37.10
2022-10-11T11:35:19.004Z,35.60
2022-10-11T11:36:19.002Z,33.90
2022-10-11T11:37:18.966Z,33.90
2022-10-11T11:38:18.956Z,33.70
2022-10-11T11:39:18.936Z,35.20
2022-10-11T11:40:18.961Z,36.00
2022-10-11T11:41:18.927Z,34.60
2022-10-11T11:42:18.907Z,35.90
2022-10-11T11:43:18.889Z,35.70
2022-10-11T11:44:20.166Z,35.20
2022-10-11T11:45:18.868Z,37.10
2022-10-11T11:46:18.869Z,36.90
2022-10-11T11:47:18.830Z,36.30
2022-10-11T11:48:18.828Z,37.90
2022-10-11T11:49:18.811Z,37.40
2022-10-11T11:50:18.812Z,37.50
2022-10-11T11:51:18.790Z,37.60
2022-10-11T11:52:18.772Z,37.70
2022-10-11T11:53:18.759Z,37.20
2022-10-11T11:54:18.752Z,37.40
2022-10-11T11:55:18.743Z,33.60
2022-10-11T11:56:18.724Z,33.00
2022-10-11T11:57:18.703Z,32.70
2022-10-11T11:58:18.704Z,36.30
2022-10-11T11:59:18.684Z,34.50
2022-10-11T12:00:18.704Z,37.30
2022-10-11T12:01:18.656Z,36.90
2022-10-11T12:02:18.712Z,37.60
2022-10-11T12:03:18.636Z,36.30
2022-10-11T12:04:18.777Z,36.30
2022-10-11T12:05:18.636Z,33.80
2022-10-11T12:06:18.598Z,29.20
2022-10-11T12:07:18.607Z,29.00
2022-10-11T12:08:18.568Z,30.50
2022-10-11T12:09:18.558Z,29.50
2022-10-11T12:10:18.570Z,29.30
2022-10-11T12:11:18.529Z,27.10
2022-10-11T12:12:18.520Z,26.80
2022-10-11T12:13:18.499Z,23.90
2022-10-11T12:14:18.499Z,21.80
2022-10-11T12:15:18.498Z,21.00
2022-10-11T12:16:18.471Z,21.00
2022-10-11T12:17:18.459Z,22.00
2022-10-11T12:18:18.443Z,22.80
2022-10-11T12:19:18.422Z,22.10
2022-10-11T12:20:18.422Z,22.60
2022-10-11T12:21:18.423Z,21.40
2022-10-11T12:22:18.395Z,19.50
2022-10-11T12:23:20.022Z,19.70
2022-10-11T12:24:18.376Z,17.40
2022-10-11T12:25:18.802Z,16.20
2022-10-11T12:26:18.383Z,15.50
2022-10-11T12:27:18.327Z,15.00
2022-10-11T12:28:18.387Z,15.30
2022-10-11T12:29:18.300Z,15.10
2022-10-11T12:30:18.296Z,13.60
2022-10-11T12:31:18.287Z,12.60
2022-10-11T12:32:18.268Z,12.90
2022-10-11T12:33:18.252Z,12.80
2022-10-11T12:34:18.239Z,12.10
2022-10-11T12:35:18.229Z,11.40
2022-10-11T12:36:18.229Z,11.70
2022-10-11T12:37:18.200Z,10.70
2022-10-11T12:38:18.191Z,9.50
2022-10-11T12:39:18.173Z,9.00
2022-10-11T12:40:18.291Z,9.50
2022-10-11T12:41:18.164Z,9.10
2022-10-11T12:42:18.140Z,10.10
2022-10-11T12:43:18.123Z,9.70
2022-10-11T12:44:18.123Z,9.20
2022-10-11T12:45:18.102Z,9.30
2022-10-11T12:46:18.104Z,9.90
2022-10-11T12:47:18.074Z,8.60
2022-10-11T12:48:18.072Z,7.80
2022-10-11T12:49:18.050Z,8.30
2022-10-11T12:50:18.034Z,7.80
2022-10-11T12:51:18.034Z,7.70
2022-10-11T12:52:18.009Z,7.10
2022-10-11T12:53:18.063Z,6.80
2022-10-11T12:54:36.864Z,6.80
2022-10-11T12:55:19.021Z,7.40